LIPY/AOI METAR and TAF weather

Enter ICAO airport designator
Station Type Date Time Source
LIPY METAR 2022/11/27 07:50 UTC NOAA

LIPY 270750Z AUTO 18003KT 9000 SCT040/// BKN062/// 08/07 Q1026


Station Type Date Time Source
LIPY Decoded METAR 2022/11/27 07:50 UTC NOAA

Falconara, Italy (LIPY) 43-37N 013-22E 10M
Nov 27, 2022 - 02:50 AM EST / 2022.11.27 0750 UTC
Wind: from the S (180 degrees) at 3 MPH (3 KT):0
Visibility: 5 mile(s):0
Sky conditions: mostly cloudy
Temperature: 46 F (8 C)
Dew Point: 44 F (7 C)
Relative Humidity: 93%
Pressure (altimeter): 30.30 in. Hg (1026 hPa)
ob: LIPY 270750Z AUTO 18003KT 9000 SCT040/// BKN062/// 08/07 Q1026
cycle: 8

Station Type Date Time Source
LIPY TAF 2022/11/27 06:26 UTC NOAA

TAF LIPY 270500Z 2706/2806 24006KT 9999 FEW040
BECMG 2712/2714 35010KT
BECMG 2720/2722 24006KT
TEMPO 2800/2806 3000 BR

Example: see airport list